sensor_id;sensor_type;location;lat;lon;timestamp;pressure;altitude;pressure_sealevel;temperature;humidity
10720;BME280;5411;58.386;15.560;2023-05-16T00:00:30;99813.69;;;15.30;71.74
10720;BME280;5411;58.386;15.560;2023-05-16T00:03:01;99813.38;;;15.27;71.35
10720;BME280;5411;58.386;15.560;2023-05-16T00:05:30;99816.56;;;15.24;71.34
10720;BME280;5411;58.386;15.560;2023-05-16T00:07:58;99810.84;;;15.20;71.83
10720;BME280;5411;58.386;15.560;2023-05-16T00:10:27;99806.50;;;15.19;71.89
10720;BME280;5411;58.386;15.560;2023-05-16T00:12:56;99808.66;;;15.17;72.29
10720;BME280;5411;58.386;15.560;2023-05-16T00:15:28;99800.22;;;15.14;72.90
10720;BME280;5411;58.386;15.560;2023-05-16T00:17:56;99788.41;;;15.15;73.25
10720;BME280;5411;58.386;15.560;2023-05-16T00:20:25;99787.34;;;15.16;73.25
10720;BME280;5411;58.386;15.560;2023-05-16T00:22:54;99797.88;;;15.17;73.68
10720;BME280;5411;58.386;15.560;2023-05-16T00:25:27;99790.59;;;15.18;75.00
10720;BME280;5411;58.386;15.560;2023-05-16T00:27:57;99782.50;;;15.18;75.90
10720;BME280;5411;58.386;15.560;2023-05-16T00:30:25;99774.72;;;15.21;75.51
10720;BME280;5411;58.386;15.560;2023-05-16T00:32:54;99769.91;;;15.23;75.13
10720;BME280;5411;58.386;15.560;2023-05-16T00:35:22;99769.44;;;15.26;76.48
10720;BME280;5411;58.386;15.560;2023-05-16T00:37:50;99769.34;;;15.21;76.11
10720;BME280;5411;58.386;15.560;2023-05-16T00:40:19;99767.94;;;15.19;77.56
10720;BME280;5411;58.386;15.560;2023-05-16T00:42:47;99757.94;;;15.14;79.33
10720;BME280;5411;58.386;15.560;2023-05-16T00:45:17;99761.94;;;15.12;78.65
10720;BME280;5411;58.386;15.560;2023-05-16T00:47:47;99754.34;;;15.09;78.49
10720;BME280;5411;58.386;15.560;2023-05-16T00:50:16;99755.97;;;15.10;79.36
10720;BME280;5411;58.386;15.560;2023-05-16T00:52:44;99746.25;;;15.09;78.75
10720;BME280;5411;58.386;15.560;2023-05-16T00:55:13;99745.69;;;15.07;78.49
10720;BME280;5411;58.386;15.560;2023-05-16T00:57:41;99734.59;;;15.03;79.23
10720;BME280;5411;58.386;15.560;2023-05-16T01:00:11;99725.13;;;15.01;79.43
10720;BME280;5411;58.386;15.560;2023-05-16T01:02:43;99731.81;;;14.98;79.91
10720;BME280;5411;58.386;15.560;2023-05-16T01:05:12;99730.75;;;14.99;80.54
10720;BME280;5411;58.386;15.560;2023-05-16T01:07:40;99721.53;;;14.95;79.83
10720;BME280;5411;58.386;15.560;2023-05-16T01:10:09;99721.72;;;14.88;80.45
10720;BME280;5411;58.386;15.560;2023-05-16T01:12:44;99727.25;;;14.82;81.11
10720;BME280;5411;58.386;15.560;2023-05-16T01:15:20;99719.94;;;14.77;81.16
10720;BME280;5411;58.386;15.560;2023-05-16T01:17:56;99709.41;;;14.76;81.93
10720;BME280;5411;58.386;15.560;2023-05-16T01:20:34;99706.97;;;14.74;83.99
10720;BME280;5411;58.386;15.560;2023-05-16T01:23:22;99706.63;;;14.71;83.58
10720;BME280;5411;58.386;15.560;2023-05-16T01:26:12;99707.94;;;14.68;84.49
10720;BME280;5411;58.386;15.560;2023-05-16T01:28:43;99713.78;;;14.65;84.33
10720;BME280;5411;58.386;15.560;2023-05-16T01:31:12;99707.88;;;14.63;84.15
10720;BME280;5411;58.386;15.560;2023-05-16T01:33:41;99701.91;;;14.61;82.98
10720;BME280;5411;58.386;15.560;2023-05-16T01:36:15;99702.47;;;14.63;83.07
10720;BME280;5411;58.386;15.560;2023-05-16T01:38:52;99693.34;;;14.64;84.01
10720;BME280;5411;58.386;15.560;2023-05-16T01:41:30;99687.38;;;14.62;84.07
10720;BME280;5411;58.386;15.560;2023-05-16T01:44:07;99687.13;;;14.64;83.97
10720;BME280;5411;58.386;15.560;2023-05-16T01:46:44;99676.91;;;14.66;84.77
10720;BME280;5411;58.386;15.560;2023-05-16T01:49:15;99672.88;;;14.63;83.86
10720;BME280;5411;58.386;15.560;2023-05-16T01:51:48;99678.00;;;14.65;83.55
10720;BME280;5411;58.386;15.560;2023-05-16T01:54:18;99674.50;;;14.64;84.41
10720;BME280;5411;58.386;15.560;2023-05-16T01:56:51;99664.28;;;14.66;84.64
10720;BME280;5411;58.386;15.560;2023-05-16T01:59:20;99661.84;;;14.65;84.35
10720;BME280;5411;58.386;15.560;2023-05-16T02:01:49;99655.66;;;14.64;84.13
10720;BME280;5411;58.386;15.560;2023-05-16T02:04:20;99655.38;;;14.66;84.40
10720;BME280;5411;58.386;15.560;2023-05-16T02:06:50;99656.75;;;14.68;83.79
10720;BME280;5411;58.386;15.560;2023-05-16T02:09:22;99652.19;;;14.69;83.47
10720;BME280;5411;58.386;15.560;2023-05-16T02:11:53;99645.50;;;14.71;83.36
10720;BME280;5411;58.386;15.560;2023-05-16T02:14:21;99646.66;;;14.75;85.04
10720;BME280;5411;58.386;15.560;2023-05-16T02:16:51;99640.13;;;14.71;85.88
10720;BME280;5411;58.386;15.560;2023-05-16T02:19:20;99640.38;;;14.70;85.71
10720;BME280;5411;58.386;15.560;2023-05-16T02:21:49;99641.44;;;14.69;86.29
10720;BME280;5411;58.386;15.560;2023-05-16T02:24:17;99631.72;;;14.68;85.53
10720;BME280;5411;58.386;15.560;2023-05-16T02:26:45;99627.16;;;14.68;86.06
10720;BME280;5411;58.386;15.560;2023-05-16T02:29:15;99631.72;;;14.68;86.88
10720;BME280;5411;58.386;15.560;2023-05-16T02:31:44;99631.72;;;14.68;87.29
10720;BME280;5411;58.386;15.560;2023-05-16T02:34:12;99636.03;;;14.69;87.28
10720;BME280;5411;58.386;15.560;2023-05-16T02:36:41;99632.28;;;14.70;88.00
10720;BME280;5411;58.386;15.560;2023-05-16T02:39:09;99645.19;;;14.68;88.16
10720;BME280;5411;58.386;15.560;2023-05-16T02:41:37;99646.44;;;14.60;86.52
10720;BME280;5411;58.386;15.560;2023-05-16T02:44:05;99651.34;;;14.46;85.44
10720;BME280;5411;58.386;15.560;2023-05-16T02:46:37;99654.91;;;14.35;86.54
10720;BME280;5411;58.386;15.560;2023-05-16T02:49:05;99663.69;;;14.31;86.63
10720;BME280;5411;58.386;15.560;2023-05-16T02:51:34;99651.28;;;14.30;86.92
10720;BME280;5411;58.386;15.560;2023-05-16T02:54:02;99662.63;;;14.32;86.56
10720;BME280;5411;58.386;15.560;2023-05-16T02:56:30;99670.00;;;14.36;86.59
10720;BME280;5411;58.386;15.560;2023-05-16T02:58:59;99680.03;;;14.41;87.00
10720;BME280;5411;58.386;15.560;2023-05-16T03:01:27;99677.44;;;14.46;87.83
10720;BME280;5411;58.386;15.560;2023-05-16T03:03:57;99659.97;;;14.48;87.52
10720;BME280;5411;58.386;15.560;2023-05-16T03:06:26;99653.84;;;14.53;86.81
10720;BME280;5411;58.386;15.560;2023-05-16T03:08:56;99657.69;;;14.57;87.16
10720;BME280;5411;58.386;15.560;2023-05-16T03:11:25;99644.56;;;14.60;87.25
10720;BME280;5411;58.386;15.560;2023-05-16T03:13:54;99646.75;;;14.64;88.02
10720;BME280;5411;58.386;15.560;2023-05-16T03:16:27;99643.00;;;14.65;88.11
10720;BME280;5411;58.386;15.560;2023-05-16T03:18:57;99647.28;;;14.66;87.23
10720;BME280;5411;58.386;15.560;2023-05-16T03:21:26;99647.06;;;14.67;87.82
10720;BME280;5411;58.386;15.560;2023-05-16T03:23:54;99645.41;;;14.66;88.25
10720;BME280;5411;58.386;15.560;2023-05-16T03:26:22;99645.19;;;14.68;88.18
10720;BME280;5411;58.386;15.560;2023-05-16T03:28:50;99657.00;;;14.67;88.06
10720;BME280;5411;58.386;15.560;2023-05-16T03:31:19;99652.19;;;14.69;88.11
10720;BME280;5411;58.386;15.560;2023-05-16T03:33:48;99649.00;;;14.72;88.96
10720;BME280;5411;58.386;15.560;2023-05-16T03:36:20;99649.25;;;14.70;88.64
10720;BME280;5411;58.386;15.560;2023-05-16T03:38:52;99641.75;;;14.72;89.00
10720;BME280;5411;58.386;15.560;2023-05-16T03:41:21;99643.38;;;14.73;88.66
10720;BME280;5411;58.386;15.560;2023-05-16T03:43:52;99638.00;;;14.73;89.12
10720;BME280;5411;58.386;15.560;2023-05-16T03:46:22;99645.25;;;14.73;89.05
10720;BME280;5411;58.386;15.560;2023-05-16T03:48:50;99629.91;;;14.73;90.23
10720;BME280;5411;58.386;15.560;2023-05-16T03:51:20;99635.78;;;14.70;89.72
10720;BME280;5411;58.386;15.560;2023-05-16T03:53:48;99628.72;;;14.64;88.79
10720;BME280;5411;58.386;15.560;2023-05-16T03:56:17;99620.88;;;14.63;90.86
10720;BME280;5411;58.386;15.560;2023-05-16T03:58:47;99617.53;;;14.55;90.67
10720;BME280;5411;58.386;15.560;2023-05-16T04:01:16;99607.25;;;14.52;90.90
10720;BME280;5411;58.386;15.560;2023-05-16T04:03:44;99616.66;;;14.50;90.35
10720;BME280;5411;58.386;15.560;2023-05-16T04:06:12;99613.69;;;14.51;89.11
10720;BME280;5411;58.386;15.560;2023-05-16T04:08:42;99612.66;;;14.52;89.74
10720;BME280;5411;58.386;15.560;2023-05-16T04:11:10;99605.91;;;14.50;89.31
10720;BME280;5411;58.386;15.560;2023-05-16T04:13:39;99610.72;;;14.48;90.29
10720;BME280;5411;58.386;15.560;2023-05-16T04:16:07;99612.59;;;14.47;90.15
10720;BME280;5411;58.386;15.560;2023-05-16T04:18:35;99614.47;;;14.47;90.09
10720;BME280;5411;58.386;15.560;2023-05-16T04:21:04;99614.94;;;14.44;90.39
10720;BME280;5411;58.386;15.560;2023-05-16T04:23:33;99612.75;;;14.41;91.11
10720;BME280;5411;58.386;15.560;2023-05-16T04:26:04;99610.88;;;14.41;91.18
10720;BME280;5411;58.386;15.560;2023-05-16T04:28:32;99614.69;;;14.45;90.80
10720;BME280;5411;58.386;15.560;2023-05-16T04:31:00;99609.94;;;14.52;90.75
10720;BME280;5411;58.386;15.560;2023-05-16T04:33:29;99596.56;;;14.57;90.84
10720;BME280;5411;58.386;15.560;2023-05-16T04:35:57;99599.50;;;14.56;90.68
10720;BME280;5411;58.386;15.560;2023-05-16T04:38:26;99604.66;;;14.57;92.05
10720;BME280;5411;58.386;15.560;2023-05-16T04:40:54;99620.66;;;14.64;91.74
10720;BME280;5411;58.386;15.560;2023-05-16T04:43:24;99633.19;;;14.75;90.98
10720;BME280;5411;58.386;15.560;2023-05-16T04:45:54;99623.69;;;14.89;90.61
10720;BME280;5411;58.386;15.560;2023-05-16T04:48:24;99618.19;;;15.01;89.13
10720;BME280;5411;58.386;15.560;2023-05-16T04:50:52;99614.88;;;15.16;88.23
10720;BME280;5411;58.386;15.560;2023-05-16T04:53:21;99609.91;;;15.29;87.10
10720;BME280;5411;58.386;15.560;2023-05-16T04:55:50;99604.06;;;15.38;86.52
10720;BME280;5411;58.386;15.560;2023-05-16T04:58:18;99598.97;;;15.41;84.33
10720;BME280;5411;58.386;15.560;2023-05-16T05:00:47;99594.97;;;15.44;83.40
10720;BME280;5411;58.386;15.560;2023-05-16T05:03:16;99597.38;;;15.45;81.11
10720;BME280;5411;58.386;15.560;2023-05-16T05:05:45;99590.41;;;15.44;80.35
10720;BME280;5411;58.386;15.560;2023-05-16T05:08:13;99589.00;;;15.42;78.40
10720;BME280;5411;58.386;15.560;2023-05-16T05:10:42;99586.88;;;15.44;78.52
10720;BME280;5411;58.386;15.560;2023-05-16T05:13:10;99586.06;;;15.43;76.80
10720;BME280;5411;58.386;15.560;2023-05-16T05:15:39;99588.78;;;15.48;77.51
10720;BME280;5411;58.386;15.560;2023-05-16T05:18:08;99578.66;;;15.55;76.79
10720;BME280;5411;58.386;15.560;2023-05-16T05:20:37;99578.75;;;15.65;76.77
10720;BME280;5411;58.386;15.560;2023-05-16T05:23:05;99574.28;;;15.76;75.76
10720;BME280;5411;58.386;15.560;2023-05-16T05:25:35;99571.66;;;15.86;74.44
10720;BME280;5411;58.386;15.560;2023-05-16T05:28:03;99570.13;;;15.95;73.30
10720;BME280;5411;58.386;15.560;2023-05-16T05:30:31;99573.41;;;16.02;73.35
10720;BME280;5411;58.386;15.560;2023-05-16T05:33:00;99565.13;;;16.09;73.66
10720;BME280;5411;58.386;15.560;2023-05-16T05:35:30;99556.28;;;16.19;73.14
10720;BME280;5411;58.386;15.560;2023-05-16T05:37:58;99554.97;;;16.26;73.10
10720;BME280;5411;58.386;15.560;2023-05-16T05:40:27;99556.38;;;16.34;71.64
10720;BME280;5411;58.386;15.560;2023-05-16T05:42:55;99548.84;;;16.36;71.33
10720;BME280;5411;58.386;15.560;2023-05-16T05:45:24;99537.78;;;16.43;70.09
10720;BME280;5411;58.386;15.560;2023-05-16T05:47:52;99534.06;;;16.54;71.11
10720;BME280;5411;58.386;15.560;2023-05-16T05:50:21;99531.41;;;16.59;71.16
10720;BME280;5411;58.386;15.560;2023-05-16T05:52:51;99527.41;;;16.66;70.62
10720;BME280;5411;58.386;15.560;2023-05-16T05:55:19;99518.53;;;16.71;70.34
10720;BME280;5411;58.386;15.560;2023-05-16T05:57:48;99516.94;;;16.75;69.77
10720;BME280;5411;58.386;15.560;2023-05-16T06:00:18;99512.38;;;16.86;69.82
10720;BME280;5411;58.386;15.560;2023-05-16T06:02:47;99517.00;;;16.90;69.18
10720;BME280;5411;58.386;15.560;2023-05-16T06:05:15;99505.63;;;16.93;68.67
10720;BME280;5411;58.386;15.560;2023-05-16T06:07:43;99511.03;;;16.93;67.94
10720;BME280;5411;58.386;15.560;2023-05-16T06:10:13;99512.66;;;16.94;68.68
10720;BME280;5411;58.386;15.560;2023-05-16T06:12:42;99511.09;;;17.03;69.67
10720;BME280;5411;58.386;15.560;2023-05-16T06:15:10;99510.28;;;17.13;70.15
10720;BME280;5411;58.386;15.560;2023-05-16T06:17:38;99510.59;;;17.17;71.27
10720;BME280;5411;58.386;15.560;2023-05-16T06:20:08;99520.84;;;17.15;72.42
10720;BME280;5411;58.386;15.560;2023-05-16T06:22:37;99502.19;;;17.18;73.04
10720;BME280;5411;58.386;15.560;2023-05-16T06:25:05;99504.38;;;17.16;72.32
10720;BME280;5411;58.386;15.560;2023-05-16T06:27:35;99506.50;;;17.19;72.39
10720;BME280;5411;58.386;15.560;2023-05-16T06:30:05;99497.06;;;17.22;72.37
10720;BME280;5411;58.386;15.560;2023-05-16T06:32:34;99503.59;;;17.31;70.99
10720;BME280;5411;58.386;15.560;2023-05-16T06:35:03;99504.66;;;17.30;70.27
10720;BME280;5411;58.386;15.560;2023-05-16T06:37:32;99510.09;;;17.40;69.62
10720;BME280;5411;58.386;15.560;2023-05-16T06:40:00;99507.41;;;17.55;69.03
10720;BME280;5411;58.386;15.560;2023-05-16T06:42:29;99505.22;;;17.62;67.19
10720;BME280;5411;58.386;15.560;2023-05-16T06:44:59;99507.16;;;17.77;67.47
10720;BME280;5411;58.386;15.560;2023-05-16T06:47:28;99506.59;;;17.85;66.86
10720;BME280;5411;58.386;15.560;2023-05-16T06:49:56;99506.88;;;17.89;67.19
10720;BME280;5411;58.386;15.560;2023-05-16T06:52:25;99494.97;;;17.90;65.35
10720;BME280;5411;58.386;15.560;2023-05-16T06:54:53;99498.75;;;17.94;65.58
10720;BME280;5411;58.386;15.560;2023-05-16T06:57:21;99500.91;;;17.92;66.18
10720;BME280;5411;58.386;15.560;2023-05-16T06:59:49;99498.78;;;17.84;66.54
10720;BME280;5411;58.386;15.560;2023-05-16T07:02:19;99493.34;;;17.84;66.77
10720;BME280;5411;58.386;15.560;2023-05-16T07:04:47;99497.69;;;17.74;68.09
10720;BME280;5411;58.386;15.560;2023-05-16T07:07:16;99496.59;;;17.75;67.49
10720;BME280;5411;58.386;15.560;2023-05-16T07:09:44;99490.66;;;17.84;67.38
10720;BME280;5411;58.386;15.560;2023-05-16T07:12:12;99482.25;;;17.85;67.20
10720;BME280;5411;58.386;15.560;2023-05-16T07:14:40;99484.94;;;17.90;66.26
10720;BME280;5411;58.386;15.560;2023-05-16T07:17:09;99487.41;;;17.82;65.36
10720;BME280;5411;58.386;15.560;2023-05-16T07:19:39;99478.47;;;17.76;65.35
10720;BME280;5411;58.386;15.560;2023-05-16T07:22:08;99482.78;;;17.72;66.06
10720;BME280;5411;58.386;15.560;2023-05-16T07:24:41;99486.59;;;17.76;66.41
10720;BME280;5411;58.386;15.560;2023-05-16T07:27:10;99489.56;;;17.79;65.65
10720;BME280;5411;58.386;15.560;2023-05-16T07:29:40;99479.00;;;17.83;65.28
10720;BME280;5411;58.386;15.560;2023-05-16T07:32:08;99490.09;;;17.97;66.14
10720;BME280;5411;58.386;15.560;2023-05-16T07:34:38;99492.25;;;18.05;64.92
10720;BME280;5411;58.386;15.560;2023-05-16T07:37:07;99492.22;;;18.15;63.11
10720;BME280;5411;58.386;15.560;2023-05-16T07:39:40;99487.88;;;18.24;62.10
10720;BME280;5411;58.386;15.560;2023-05-16T07:42:08;99484.06;;;18.35;61.45
10720;BME280;5411;58.386;15.560;2023-05-16T07:44:37;99480.50;;;18.50;59.88
10720;BME280;5411;58.386;15.560;2023-05-16T07:47:05;99479.91;;;18.53;59.83
10720;BME280;5411;58.386;15.560;2023-05-16T07:49:33;99480.22;;;18.62;60.76
10720;BME280;5411;58.386;15.560;2023-05-16T07:52:03;99472.28;;;18.75;59.88
10720;BME280;5411;58.386;15.560;2023-05-16T07:54:34;99471.41;;;18.90;59.72
10720;BME280;5411;58.386;15.560;2023-05-16T07:57:02;99477.84;;;18.99;58.95
10720;BME280;5411;58.386;15.560;2023-05-16T07:59:30;99470.78;;;19.03;59.40
10720;BME280;5411;58.386;15.560;2023-05-16T08:01:59;99476.16;;;19.08;57.32
10720;BME280;5411;58.386;15.560;2023-05-16T08:04:27;99472.09;;;19.06;57.88
10720;BME280;5411;58.386;15.560;2023-05-16T08:06:56;99463.75;;;19.02;58.07
10720;BME280;5411;58.386;15.560;2023-05-16T08:09:25;99465.06;;;19.05;57.13
10720;BME280;5411;58.386;15.560;2023-05-16T08:11:54;99469.41;;;19.06;56.87
10720;BME280;5411;58.386;15.560;2023-05-16T08:14:22;99466.44;;;19.02;57.09
10720;BME280;5411;58.386;15.560;2023-05-16T08:16:51;99472.16;;;18.96;57.75
10720;BME280;5411;58.386;15.560;2023-05-16T08:19:19;99479.53;;;18.90;57.68
10720;BME280;5411;58.386;15.560;2023-05-16T08:21:47;99476.53;;;18.92;58.02
10720;BME280;5411;58.386;15.560;2023-05-16T08:24:15;99471.63;;;18.99;57.81
10720;BME280;5411;58.386;15.560;2023-05-16T08:26:45;99473.19;;;19.05;58.18
10720;BME280;5411;58.386;15.560;2023-05-16T08:29:13;99474.53;;;19.12;58.02
10720;BME280;5411;58.386;15.560;2023-05-16T08:31:42;99480.50;;;19.04;58.54
10720;BME280;5411;58.386;15.560;2023-05-16T08:34:10;99486.25;;;19.03;58.27
10720;BME280;5411;58.386;15.560;2023-05-16T08:36:38;99475.94;;;19.00;58.37
10720;BME280;5411;58.386;15.560;2023-05-16T08:39:07;99471.88;;;19.02;58.74
10720;BME280;5411;58.386;15.560;2023-05-16T08:41:37;99484.84;;;19.05;58.81
10720;BME280;5411;58.386;15.560;2023-05-16T08:44:07;99479.13;;;19.12;58.10
10720;BME280;5411;58.386;15.560;2023-05-16T08:46:40;99482.06;;;19.20;57.10
10720;BME280;5411;58.386;15.560;2023-05-16T08:49:12;99474.16;;;19.29;56.46
10720;BME280;5411;58.386;15.560;2023-05-16T08:51:50;99472.13;;;19.50;56.98
10720;BME280;5411;58.386;15.560;2023-05-16T08:54:19;99461.09;;;19.70;55.68
10720;BME280;5411;58.386;15.560;2023-05-16T08:56:48;99460.63;;;19.92;53.27
10720;BME280;5411;58.386;15.560;2023-05-16T08:59:18;99455.31;;;20.06;53.46
10720;BME280;5411;58.386;15.560;2023-05-16T09:01:48;99456.72;;;20.27;53.74
10720;BME280;5411;58.386;15.560;2023-05-16T09:04:25;99454.00;;;20.51;52.57
10720;BME280;5411;58.386;15.560;2023-05-16T09:06:53;99456.84;;;20.64;51.14
10720;BME280;5411;58.386;15.560;2023-05-16T09:09:23;99453.63;;;20.62;51.27
10720;BME280;5411;58.386;15.560;2023-05-16T09:11:51;99448.69;;;20.64;51.25
10720;BME280;5411;58.386;15.560;2023-05-16T09:14:21;99442.94;;;20.66;50.98
10720;BME280;5411;58.386;15.560;2023-05-16T09:17:02;99445.66;;;20.90;51.38
10720;BME280;5411;58.386;15.560;2023-05-16T09:19:37;99453.56;;;21.05;50.91
10720;BME280;5411;58.386;15.560;2023-05-16T09:22:09;99459.91;;;21.19;50.83
10720;BME280;5411;58.386;15.560;2023-05-16T09:24:39;99456.47;;;21.32;49.81
10720;BME280;5411;58.386;15.560;2023-05-16T09:27:14;99452.44;;;21.30;49.97
10720;BME280;5411;58.386;15.560;2023-05-16T09:29:51;99453.59;;;21.24;49.70
10720;BME280;5411;58.386;15.560;2023-05-16T09:32:19;99455.50;;;21.23;50.46
10720;BME280;5411;58.386;15.560;2023-05-16T09:34:48;99454.19;;;21.21;48.94
10720;BME280;5411;58.386;15.560;2023-05-16T09:37:18;99444.84;;;21.27;49.42
10720;BME280;5411;58.386;15.560;2023-05-16T09:39:48;99450.31;;;21.27;49.84
10720;BME280;5411;58.386;15.560;2023-05-16T09:42:18;99453.00;;;21.08;50.79
10720;BME280;5411;58.386;15.560;2023-05-16T09:44:48;99456.31;;;20.86;51.26
10720;BME280;5411;58.386;15.560;2023-05-16T09:47:18;99452.91;;;20.76;51.12
10720;BME280;5411;58.386;15.560;2023-05-16T09:49:51;99458.94;;;20.73;51.03
10720;BME280;5411;58.386;15.560;2023-05-16T09:52:19;99439.22;;;20.62;50.98
10720;BME280;5411;58.386;15.560;2023-05-16T09:54:48;99445.88;;;20.51;52.29
10720;BME280;5411;58.386;15.560;2023-05-16T09:57:20;99441.28;;;20.70;52.54
10720;BME280;5411;58.386;15.560;2023-05-16T09:59:49;99440.31;;;20.80;51.98
10720;BME280;5411;58.386;15.560;2023-05-16T10:02:19;99429.81;;;20.92;50.98
10720;BME280;5411;58.386;15.560;2023-05-16T10:04:47;99424.91;;;21.13;50.98
10720;BME280;5411;58.386;15.560;2023-05-16T10:07:16;99424.91;;;21.13;49.48
10720;BME280;5411;58.386;15.560;2023-05-16T10:09:45;99425.28;;;21.25;50.17
10720;BME280;5411;58.386;15.560;2023-05-16T10:12:14;99424.19;;;21.26;50.37
10720;BME280;5411;58.386;15.560;2023-05-16T10:14:44;99418.06;;;21.34;49.92
10720;BME280;5411;58.386;15.560;2023-05-16T10:17:16;99427.84;;;21.35;49.19
10720;BME280;5411;58.386;15.560;2023-05-16T10:19:47;99425.59;;;21.23;49.79
10720;BME280;5411;58.386;15.560;2023-05-16T10:22:16;99425.06;;;21.21;49.73
10720;BME280;5411;58.386;15.560;2023-05-16T10:24:50;99426.97;;;21.21;49.18
10720;BME280;5411;58.386;15.560;2023-05-16T10:27:22;99429.75;;;21.16;48.58
10720;BME280;5411;58.386;15.560;2023-05-16T10:29:52;99424.47;;;21.24;48.86
10720;BME280;5411;58.386;15.560;2023-05-16T10:32:22;99427.44;;;21.28;49.31
10720;BME280;5411;58.386;15.560;2023-05-16T10:34:53;99429.53;;;21.31;49.31
10720;BME280;5411;58.386;15.560;2023-05-16T10:37:22;99432.56;;;21.29;49.26
10720;BME280;5411;58.386;15.560;2023-05-16T10:39:52;99432.56;;;21.29;49.83
10720;BME280;5411;58.386;15.560;2023-05-16T10:42:20;99416.59;;;21.42;50.28
10720;BME280;5411;58.386;15.560;2023-05-16T10:44:52;99422.78;;;21.61;49.35
10720;BME280;5411;58.386;15.560;2023-05-16T10:47:32;99417.38;;;21.75;49.00
10720;BME280;5411;58.386;15.560;2023-05-16T10:50:02;99400.94;;;21.80;47.96
10720;BME280;5411;58.386;15.560;2023-05-16T10:52:32;99405.06;;;21.77;48.67
10720;BME280;5411;58.386;15.560;2023-05-16T10:55:02;99398.13;;;21.98;47.91
10720;BME280;5411;58.386;15.560;2023-05-16T10:57:32;99401.19;;;22.11;47.53
10720;BME280;5411;58.386;15.560;2023-05-16T11:00:07;99409.88;;;22.26;47.52
10720;BME280;5411;58.386;15.560;2023-05-16T11:02:49;99404.34;;;22.31;47.24
10720;BME280;5411;58.386;15.560;2023-05-16T11:05:19;99411.63;;;22.36;45.80
10720;BME280;5411;58.386;15.560;2023-05-16T11:08:01;99404.84;;;22.33;45.12
10720;BME280;5411;58.386;15.560;2023-05-16T11:10:30;99403.59;;;22.39;44.97
10720;BME280;5411;58.386;15.560;2023-05-16T11:13:03;99396.53;;;22.52;45.17
10720;BME280;5411;58.386;15.560;2023-05-16T11:15:34;99393.59;;;22.62;45.55
10720;BME280;5411;58.386;15.560;2023-05-16T11:18:04;99394.28;;;22.68;43.38
10720;BME280;5411;58.386;15.560;2023-05-16T11:20:35;99404.81;;;22.61;44.10
10720;BME280;5411;58.386;15.560;2023-05-16T11:23:26;99399.16;;;22.57;42.89
10720;BME280;5411;58.386;15.560;2023-05-16T11:25:55;99399.06;;;22.62;42.89
10720;BME280;5411;58.386;15.560;2023-05-16T11:28:26;99404.09;;;22.55;43.33
10720;BME280;5411;58.386;15.560;2023-05-16T11:30:57;99398.44;;;22.52;43.64
10720;BME280;5411;58.386;15.560;2023-05-16T11:33:29;99393.31;;;22.50;43.96
10720;BME280;5411;58.386;15.560;2023-05-16T11:36:06;99395.53;;;22.48;43.08
10720;BME280;5411;58.386;15.560;2023-05-16T11:38:38;99401.88;;;22.57;43.60
10720;BME280;5411;58.386;15.560;2023-05-16T11:41:09;99395.91;;;22.69;44.20
10720;BME280;5411;58.386;15.560;2023-05-16T11:43:40;99401.56;;;22.72;44.18
10720;BME280;5411;58.386;15.560;2023-05-16T11:46:10;99399.50;;;22.92;43.65
10720;BME280;5411;58.386;15.560;2023-05-16T11:48:40;99395.03;;;22.96;44.08
10720;BME280;5411;58.386;15.560;2023-05-16T11:51:10;99393.38;;;22.86;42.75
10720;BME280;5411;58.386;15.560;2023-05-16T11:53:40;99408.63;;;22.73;44.03
10720;BME280;5411;58.386;15.560;2023-05-16T11:56:09;99398.94;;;22.67;44.07
10720;BME280;5411;58.386;15.560;2023-05-16T11:58:38;99400.50;;;22.46;44.68
10720;BME280;5411;58.386;15.560;2023-05-16T12:01:06;99391.81;;;22.30;45.11
10720;BME280;5411;58.386;15.560;2023-05-16T12:03:36;99396.16;;;22.04;46.45
10720;BME280;5411;58.386;15.560;2023-05-16T12:06:05;99395.22;;;21.81;46.63
10720;BME280;5411;58.386;15.560;2023-05-16T12:08:34;99405.44;;;21.57;46.65
10720;BME280;5411;58.386;15.560;2023-05-16T12:11:03;99406.22;;;21.44;47.86
10720;BME280;5411;58.386;15.560;2023-05-16T12:13:31;99414.00;;;21.31;48.13
10720;BME280;5411;58.386;15.560;2023-05-16T12:15:59;99418.13;;;21.10;48.29
10720;BME280;5411;58.386;15.560;2023-05-16T12:18:28;99408.72;;;20.84;48.96
10720;BME280;5411;58.386;15.560;2023-05-16T12:20:56;99403.22;;;20.70;49.96
10720;BME280;5411;58.386;15.560;2023-05-16T12:23:25;99408.44;;;20.67;50.56
10720;BME280;5411;58.386;15.560;2023-05-16T12:25:56;99402.47;;;20.64;51.30
10720;BME280;5411;58.386;15.560;2023-05-16T12:28:30;99400.72;;;20.74;50.75
10720;BME280;5411;58.386;15.560;2023-05-16T12:31:00;99404.63;;;20.86;49.65
10720;BME280;5411;58.386;15.560;2023-05-16T12:33:28;99397.84;;;20.84;49.63
10720;BME280;5411;58.386;15.560;2023-05-16T12:35:57;99396.75;;;20.85;48.61
10720;BME280;5411;58.386;15.560;2023-05-16T12:38:28;99390.22;;;20.86;48.42
10720;BME280;5411;58.386;15.560;2023-05-16T12:40:58;99389.84;;;20.92;48.31
10720;BME280;5411;58.386;15.560;2023-05-16T12:43:26;99385.50;;;20.91;48.40
10720;BME280;5411;58.386;15.560;2023-05-16T12:45:56;99388.00;;;20.88;48.68
10720;BME280;5411;58.386;15.560;2023-05-16T12:48:32;99387.50;;;20.86;48.30
10720;BME280;5411;58.386;15.560;2023-05-16T12:51:09;99401.31;;;20.89;49.02
10720;BME280;5411;58.386;15.560;2023-05-16T12:53:42;99391.59;;;20.83;49.32
10720;BME280;5411;58.386;15.560;2023-05-16T12:56:32;99394.47;;;20.73;49.73
10720;BME280;5411;58.386;15.560;2023-05-16T12:59:01;99390.38;;;20.76;50.06
10720;BME280;5411;58.386;15.560;2023-05-16T13:01:29;99390.13;;;20.72;50.17
10720;BME280;5411;58.386;15.560;2023-05-16T13:03:57;99397.53;;;20.67;51.15
10720;BME280;5411;58.386;15.560;2023-05-16T13:06:27;99390.78;;;20.64;52.28
10720;BME280;5411;58.386;15.560;2023-05-16T13:09:10;99400.97;;;20.53;52.96
10720;BME280;5411;58.386;15.560;2023-05-16T13:11:41;99399.22;;;20.44;52.57
10720;BME280;5411;58.386;15.560;2023-05-16T13:14:09;99394.19;;;20.32;52.60